createdAt,value
2018-04-16T00:01:53.998Z,4.13
2018-04-16T00:04:22.219Z,4.07
2018-04-16T00:06:50.528Z,4.43
2018-04-16T00:09:18.025Z,4.20
2018-04-16T00:11:46.224Z,3.37
2018-04-16T00:14:13.977Z,3.63
2018-04-16T00:16:42.403Z,4.23
2018-04-16T00:19:11.308Z,3.90
2018-04-16T00:21:38.833Z,3.80
2018-04-16T00:24:06.345Z,3.93
2018-04-16T00:26:33.873Z,4.40
2018-04-16T00:29:01.550Z,3.33
2018-04-16T00:31:34.735Z,4.60
2018-04-16T00:34:07.861Z,4.20
2018-04-16T00:36:41.068Z,3.30
2018-04-16T00:39:15.081Z,3.83
2018-04-16T00:41:48.635Z,3.97
2018-04-16T00:44:22.377Z,3.80
2018-04-16T00:46:55.832Z,3.77
2018-04-16T00:49:29.078Z,4.00
2018-04-16T00:52:02.685Z,3.60
2018-04-16T00:54:35.892Z,3.53
2018-04-16T00:57:09.786Z,3.80
2018-04-16T00:59:42.992Z,3.90
2018-04-16T01:02:16.383Z,3.63
2018-04-16T01:04:49.581Z,3.70
2018-04-16T01:07:23.127Z,4.00
2018-04-16T01:09:57.040Z,3.27
2018-04-16T01:12:31.869Z,3.80
2018-04-16T01:15:05.044Z,3.23
2018-04-16T01:17:38.339Z,3.40
2018-04-16T01:20:12.505Z,3.73
2018-04-16T01:22:45.678Z,3.93
2018-04-16T01:25:18.748Z,4.20
2018-04-16T01:27:52.091Z,3.20
2018-04-16T01:30:26.416Z,3.50
2018-04-16T01:32:59.767Z,2.50
2018-04-16T01:35:32.993Z,2.97
2018-04-16T01:38:06.137Z,3.03
2018-04-16T01:40:40.409Z,3.20
2018-04-16T01:43:15.503Z,3.27
2018-04-16T01:45:48.712Z,3.00
2018-04-16T01:48:21.905Z,3.20
2018-04-16T01:50:56.148Z,3.00
2018-04-16T01:53:30.349Z,4.00
2018-04-16T01:56:03.527Z,3.90
2018-04-16T01:58:36.639Z,3.47
2018-04-16T02:01:10.560Z,3.87
2018-04-16T02:03:43.664Z,4.27
2018-04-16T02:09:20.034Z,3.93
2018-04-16T02:11:53.221Z,3.50
2018-04-16T02:14:26.432Z,4.83
2018-04-16T02:16:59.626Z,4.20
2018-04-16T02:19:33.795Z,5.00
2018-04-16T02:22:07.643Z,4.30
2018-04-16T02:24:40.757Z,4.13
2018-04-16T02:27:14.598Z,4.40
2018-04-16T02:29:47.843Z,4.30
2018-04-16T02:32:21.088Z,4.47
2018-04-16T02:34:55.287Z,3.97
2018-04-16T02:37:29.198Z,3.80
2018-04-16T02:40:02.597Z,4.60
2018-04-16T02:42:36.568Z,3.93
2018-04-16T02:45:09.568Z,4.60
2018-04-16T02:47:42.633Z,3.60
2018-04-16T02:50:15.781Z,4.30
2018-04-16T02:52:48.901Z,4.10
2018-04-16T02:55:22.848Z,3.93
2018-04-16T02:58:10.066Z,4.23
2018-04-16T03:00:44.065Z,4.10
2018-04-16T03:03:17.301Z,4.03
2018-04-16T03:05:51.153Z,4.00
2018-04-16T03:08:24.571Z,4.60
2018-04-16T03:10:57.823Z,4.30
2018-04-16T03:13:31.784Z,4.30
2018-04-16T03:16:04.869Z,4.30
2018-04-16T03:18:38.094Z,4.50
2018-04-16T03:21:11.473Z,4.00
2018-04-16T03:23:44.720Z,3.60
2018-04-16T03:26:17.865Z,4.23
2018-04-16T03:28:51.112Z,3.90
2018-04-16T03:31:24.745Z,4.10
2018-04-16T03:33:58.345Z,3.83
2018-04-16T03:36:32.121Z,4.60
2018-04-16T03:39:05.207Z,3.63
2018-04-16T03:41:38.334Z,4.07
2018-04-16T03:44:11.915Z,4.13
2018-04-16T03:46:46.311Z,4.60
2018-04-16T03:49:21.231Z,4.27
2018-04-16T03:51:56.065Z,4.40
2018-04-16T03:54:25.212Z,4.07
2018-04-16T03:56:54.472Z,4.20
2018-04-16T03:59:24.555Z,4.27
2018-04-16T04:01:53.743Z,4.90
2018-04-16T04:04:22.877Z,4.40
2018-04-16T04:06:52.048Z,4.37
2018-04-16T04:09:21.323Z,4.40
2018-04-16T04:11:51.330Z,4.30
2018-04-16T04:14:20.569Z,5.37
2018-04-16T04:16:49.716Z,5.17
2018-04-16T04:19:19.295Z,4.73
2018-04-16T04:21:48.442Z,5.40
2018-04-16T04:24:33.355Z,4.93
2018-04-16T04:27:08.615Z,5.10
2018-04-16T04:29:43.584Z,4.80
2018-04-16T04:32:13.590Z,5.60
2018-04-16T04:34:42.755Z,5.90
2018-04-16T04:37:11.899Z,5.60
2018-04-16T04:39:41.072Z,6.47
2018-04-16T04:42:10.220Z,6.53
2018-04-16T04:44:39.389Z,5.73
2018-04-16T04:47:08.613Z,6.70
2018-04-16T04:49:37.784Z,6.80
2018-04-16T04:52:07.008Z,8.23
2018-04-16T04:54:36.175Z,6.80
2018-04-16T04:57:06.251Z,7.80
2018-04-16T04:59:37.793Z,6.23
2018-04-16T05:02:06.990Z,6.20
2018-04-16T05:04:36.172Z,6.60
2018-04-16T05:07:05.895Z,7.10
2018-04-16T05:09:35.060Z,7.13
2018-04-16T05:12:04.959Z,6.73
2018-04-16T05:14:34.122Z,6.83
2018-04-16T05:17:03.285Z,7.40
2018-04-16T05:19:32.450Z,5.60
2018-04-16T05:22:02.496Z,6.13
2018-04-16T05:24:31.653Z,6.50
2018-04-16T05:27:01.615Z,5.97
2018-04-16T05:29:31.075Z,6.90
2018-04-16T05:32:00.740Z,6.40
2018-04-16T05:34:29.916Z,6.07
2018-04-16T05:36:59.065Z,6.37
2018-04-16T05:39:28.248Z,5.77
2018-04-16T05:41:57.394Z,5.90
2018-04-16T05:44:26.601Z,6.03
2018-04-16T05:46:55.753Z,5.50
2018-04-16T05:49:24.977Z,5.70
2018-04-16T05:51:54.137Z,5.90
2018-04-16T05:54:25.892Z,5.73
2018-04-16T05:56:58.204Z,7.03
2018-04-16T05:59:27.372Z,6.10
2018-04-16T06:01:57.442Z,6.47
2018-04-16T06:04:26.603Z,6.53
2018-04-16T06:06:55.754Z,6.30
2018-04-16T06:09:25.205Z,5.73
2018-04-16T06:11:54.357Z,6.93
2018-04-16T06:14:24.309Z,7.40
2018-04-16T06:16:54.428Z,6.60
2018-04-16T06:19:23.971Z,7.43
2018-04-16T06:21:54.064Z,6.97
2018-04-16T06:24:23.927Z,7.57
2018-04-16T07:10:34.558Z,7.93
2018-04-16T07:13:03.700Z,8.17
2018-04-16T07:15:32.909Z,7.43
2018-04-16T07:18:02.045Z,7.00
2018-04-16T07:20:31.213Z,6.97
2018-04-16T07:23:00.395Z,6.83
2018-04-16T07:25:30.178Z,7.10
2018-04-16T07:27:59.340Z,7.73
2018-04-16T07:30:29.259Z,7.40
2018-04-16T07:32:58.997Z,6.40
2018-04-16T07:35:28.135Z,6.87
2018-04-16T07:37:57.300Z,7.73
2018-04-16T07:40:26.440Z,7.20
2018-04-16T07:42:55.613Z,6.37
2018-04-16T07:45:24.767Z,7.67
2018-04-16T07:47:53.931Z,6.60
2018-04-16T07:50:23.074Z,6.20
2018-04-16T07:52:52.240Z,5.80
2018-04-16T07:55:22.559Z,6.27
2018-04-16T07:57:51.717Z,5.80
2018-04-16T08:00:21.429Z,6.07
2018-04-16T08:02:50.598Z,6.40
2018-04-16T08:05:19.756Z,6.10
2018-04-16T08:07:48.922Z,6.30
2018-04-16T08:10:18.109Z,6.07
2018-04-16T08:12:47.267Z,6.23
2018-04-16T08:15:16.417Z,6.33
2018-04-16T08:17:45.612Z,7.03
2018-04-16T08:20:15.680Z,6.00
2018-04-16T08:22:44.855Z,6.17
2018-04-16T08:25:14.222Z,6.30
2018-04-16T08:27:43.383Z,6.20
2018-04-16T08:30:12.540Z,6.13
2018-04-16T08:32:41.714Z,6.90
2018-04-16T08:35:10.860Z,6.30
2018-04-16T08:37:40.379Z,6.47
2018-04-16T08:40:09.537Z,6.20
2018-04-16T08:42:38.698Z,6.93
2018-04-16T08:45:07.853Z,6.13
2018-04-16T08:47:38.157Z,5.90
2018-04-16T08:50:07.296Z,5.40
2018-04-16T08:52:36.515Z,5.40
2018-04-16T08:55:05.915Z,6.53
2018-04-16T08:57:34.193Z,4.90
2018-04-16T09:00:01.702Z,5.57
2018-04-16T09:02:29.251Z,6.43
2018-04-16T09:04:56.748Z,4.80
2018-04-16T09:07:24.252Z,5.67
2018-04-16T09:09:51.767Z,5.27
2018-04-16T09:12:19.275Z,4.50
2018-04-16T09:14:47.077Z,4.33
2018-04-16T09:17:15.517Z,4.90
2018-04-16T09:19:43.505Z,5.70
2018-04-16T09:22:11.038Z,5.50
2018-04-16T09:24:39.421Z,5.53
2018-04-16T09:27:06.920Z,4.87
2018-04-16T09:29:35.321Z,4.57
2018-04-16T09:32:02.832Z,5.23
2018-04-16T09:34:30.900Z,5.27
2018-04-16T09:36:58.395Z,5.07
2018-04-16T09:39:27.469Z,3.57
2018-04-16T09:41:54.965Z,2.67
2018-04-16T09:44:23.498Z,2.23
2018-04-16T09:46:51.004Z,2.70
2018-04-16T09:49:19.248Z,3.50
2018-04-16T09:51:47.293Z,4.23
2018-04-16T09:54:14.804Z,3.40
2018-04-16T09:56:43.065Z,2.10
2018-04-16T09:59:10.582Z,1.70
2018-04-16T10:01:38.883Z,2.07
2018-04-16T10:04:06.507Z,3.07
2018-04-16T10:06:34.008Z,2.20
2018-04-16T10:09:02.343Z,3.23
2018-04-16T10:11:30.779Z,2.67
2018-04-16T10:13:58.283Z,2.47
2018-04-16T10:16:26.725Z,2.50
2018-04-16T10:18:54.250Z,1.97
2018-04-16T10:21:22.678Z,1.73
2018-04-16T10:23:50.185Z,2.30
2018-04-16T10:26:17.695Z,2.40
2018-04-16T10:28:45.202Z,2.20
2018-04-16T10:31:12.720Z,2.50
2018-04-16T10:33:40.228Z,2.23
2018-04-16T10:36:07.744Z,2.63
2018-04-16T10:38:35.289Z,2.70
2018-04-16T10:41:04.052Z,3.20
2018-04-16T10:43:31.522Z,3.50
2018-04-16T10:45:59.668Z,2.40
2018-04-16T10:48:27.182Z,2.50
2018-04-16T10:50:55.444Z,2.57
2018-04-16T10:53:23.708Z,2.60
2018-04-16T10:55:52.712Z,2.80
2018-04-16T10:58:20.230Z,2.93
2018-04-16T11:00:47.745Z,3.93
2018-04-16T11:03:15.257Z,3.70
2018-04-16T11:05:42.885Z,3.27
2018-04-16T11:08:10.385Z,2.47
2018-04-16T11:10:37.905Z,2.67
2018-04-16T11:13:05.424Z,3.30
2018-04-16T11:15:32.933Z,2.27
2018-04-16T11:18:00.445Z,2.80
2018-04-16T11:20:28.274Z,2.60
2018-04-16T11:22:55.828Z,1.80
2018-04-16T11:25:24.457Z,1.97
2018-04-16T11:27:51.964Z,2.43
2018-04-16T11:30:19.460Z,2.30
2018-04-16T11:32:47.581Z,1.93
2018-04-16T11:35:15.892Z,2.00
2018-04-16T11:37:43.680Z,1.77
2018-04-16T11:40:12.599Z,1.70
2018-04-16T11:42:40.948Z,1.70
2018-04-16T11:45:09.229Z,1.23
2018-04-16T11:47:38.323Z,1.47
2018-04-16T11:50:05.825Z,1.70
2018-04-16T11:52:33.995Z,1.80
2018-04-16T11:55:01.503Z,1.90
2018-04-16T11:57:29.017Z,2.00
2018-04-16T11:59:56.541Z,1.90
2018-04-16T12:02:25.891Z,2.43
2018-04-16T12:04:56.343Z,1.70
2018-04-16T12:07:23.899Z,1.90
2018-04-16T12:09:52.191Z,1.60
2018-04-16T12:12:19.705Z,1.40
2018-04-16T12:14:47.625Z,2.40
2018-04-16T12:17:16.121Z,2.17
2018-04-16T12:19:43.610Z,2.23
2018-04-16T12:22:12.772Z,2.03
2018-04-16T12:24:40.284Z,1.90
2018-04-16T12:27:10.137Z,2.37
2018-04-16T12:29:38.635Z,1.90
2018-04-16T12:32:06.258Z,1.53
2018-04-16T12:34:33.754Z,1.77
2018-04-16T12:37:02.241Z,2.23
2018-04-16T12:39:29.770Z,1.77
2018-04-16T12:41:57.273Z,2.03
2018-04-16T12:44:24.792Z,1.90
2018-04-16T12:46:52.293Z,1.80
2018-04-16T12:49:20.423Z,1.60
2018-04-16T12:51:48.049Z,1.50
2018-04-16T12:54:16.329Z,1.70
2018-04-16T12:56:43.827Z,2.07
2018-04-16T12:59:11.336Z,1.80
2018-04-16T13:01:38.829Z,1.80
2018-04-16T13:04:06.688Z,1.40
2018-04-16T13:06:34.182Z,1.40
2018-04-16T13:09:01.700Z,1.50
2018-04-16T13:11:29.216Z,1.60
2018-04-16T13:13:57.644Z,1.40
2018-04-16T13:16:25.649Z,1.40
2018-04-16T13:18:53.163Z,1.50
2018-04-16T13:21:20.665Z,1.63
2018-04-16T13:23:48.189Z,1.40
2018-04-16T13:26:15.687Z,1.60
2018-04-16T13:28:43.202Z,1.70
2018-04-16T13:31:10.693Z,1.97
2018-04-16T13:33:38.209Z,1.50
2018-04-16T13:36:07.402Z,3.90
2018-04-16T13:38:35.696Z,1.93
2018-04-16T13:41:03.185Z,1.77
2018-04-16T13:43:30.716Z,1.80
2018-04-16T13:45:58.216Z,1.80
2018-04-16T13:48:25.705Z,1.60
2018-04-16T13:50:53.232Z,1.80
2018-04-16T13:53:20.728Z,1.70
2018-04-16T13:55:49.101Z,1.23
2018-04-16T13:58:17.544Z,1.83
2018-04-16T14:00:45.089Z,2.10
2018-04-16T14:03:13.177Z,1.77
2018-04-16T14:05:40.718Z,1.90
2018-04-16T14:08:08.639Z,2.20
2018-04-16T14:10:36.160Z,1.80
2018-04-16T14:13:03.669Z,1.73
2018-04-16T14:15:31.183Z,1.60
2018-04-16T14:17:58.673Z,1.80
2018-04-16T14:20:26.212Z,1.77
2018-04-16T14:22:53.774Z,1.87
2018-04-16T14:25:21.924Z,1.50
2018-04-16T14:27:51.246Z,1.70
2018-04-16T14:30:18.781Z,1.60
2018-04-16T14:32:46.819Z,1.57
2018-04-16T14:35:14.350Z,1.43
2018-04-16T14:37:41.897Z,1.57
2018-04-16T14:40:09.507Z,1.90
2018-04-16T14:42:37.676Z,1.57
2018-04-16T14:45:05.193Z,1.40
2018-04-16T14:47:32.704Z,1.30
2018-04-16T14:50:00.365Z,1.33
2018-04-16T14:52:28.642Z,1.50
2018-04-16T14:54:56.163Z,1.50
2018-04-16T14:57:23.673Z,1.70
2018-04-16T14:59:51.185Z,1.70
2018-04-16T15:02:19.168Z,1.30
2018-04-16T15:04:46.676Z,1.80
2018-04-16T15:07:19.423Z,1.50
2018-04-16T15:09:46.943Z,1.70
2018-04-16T15:12:14.440Z,1.87
2018-04-16T15:14:41.964Z,1.97
2018-04-16T15:17:09.460Z,1.83
2018-04-16T15:19:36.976Z,1.40
2018-04-16T15:22:04.488Z,1.63
2018-04-16T15:24:32.017Z,1.63
2018-04-16T15:27:00.733Z,1.60
2018-04-16T15:29:29.004Z,1.50
2018-04-16T15:31:56.754Z,1.50
2018-04-16T15:34:24.251Z,1.90
2018-04-16T15:36:52.533Z,1.80
2018-04-16T15:39:20.819Z,1.70
2018-04-16T15:41:48.364Z,2.00
2018-04-16T15:44:16.639Z,1.90
2018-04-16T15:46:44.915Z,2.40
2018-04-16T15:49:13.178Z,2.80
2018-04-16T15:51:41.700Z,1.80
2018-04-16T15:54:09.200Z,1.90
2018-04-16T15:56:37.431Z,1.83
2018-04-16T15:59:04.947Z,2.80
2018-04-16T16:01:32.455Z,2.00
2018-04-16T16:03:59.956Z,1.87
2018-04-16T16:06:27.468Z,2.10
2018-04-16T16:08:54.969Z,5.40
2018-04-16T16:11:23.829Z,3.30
2018-04-16T16:13:51.511Z,2.07
2018-04-16T16:16:20.386Z,2.20
2018-04-16T16:18:47.947Z,2.23
2018-04-16T16:21:16.398Z,2.20
2018-04-16T16:23:44.848Z,2.33
2018-04-16T16:26:12.509Z,2.20
2018-04-16T16:28:41.991Z,2.10
2018-04-16T16:31:10.152Z,2.57
2018-04-16T16:33:37.667Z,1.80
2018-04-16T16:36:05.433Z,1.80
2018-04-16T16:38:33.356Z,2.03
2018-04-16T16:41:00.896Z,1.60
2018-04-16T16:43:28.453Z,1.73
2018-04-16T16:45:55.971Z,2.50
2018-04-16T16:48:23.490Z,2.23
2018-04-16T16:50:50.993Z,2.03
2018-04-16T16:53:18.506Z,1.83
2018-04-16T16:55:46.925Z,1.60
2018-04-16T16:58:14.742Z,1.63
2018-04-16T17:00:42.320Z,1.70
2018-04-16T17:03:10.194Z,2.13
2018-04-16T17:05:37.726Z,3.00
2018-04-16T17:08:07.053Z,2.10
2018-04-16T17:10:34.554Z,1.70
2018-04-16T17:13:02.076Z,1.93
2018-04-16T17:15:29.673Z,2.17
2018-04-16T17:17:57.972Z,2.40
2018-04-16T17:20:27.876Z,2.10
2018-04-16T17:22:56.118Z,2.10
2018-04-16T17:25:23.693Z,2.10
2018-04-16T17:27:51.206Z,2.00
2018-04-16T17:30:18.860Z,2.20
2018-04-16T17:32:46.352Z,2.10
2018-04-16T17:35:14.777Z,1.90
2018-04-16T17:37:42.272Z,1.70
2018-04-16T17:40:09.926Z,1.90
2018-04-16T17:42:38.340Z,2.10
2018-04-16T17:45:08.398Z,4.40
2018-04-16T17:47:36.682Z,5.43
2018-04-16T17:50:04.524Z,3.07
2018-04-16T17:52:32.145Z,1.73
2018-04-16T17:55:00.552Z,2.03
2018-04-16T17:57:28.049Z,1.70
2018-04-16T17:59:55.583Z,2.57
2018-04-16T18:02:23.565Z,2.10
2018-04-16T18:04:51.816Z,1.50
2018-04-16T18:07:19.315Z,2.00
2018-04-16T18:09:46.861Z,2.60
2018-04-16T18:12:14.384Z,2.70
2018-04-16T18:14:43.397Z,3.23
2018-04-16T18:17:10.925Z,4.70
2018-04-16T18:19:38.613Z,4.50
2018-04-16T18:22:08.080Z,4.67
2018-04-16T18:24:36.086Z,5.10
2018-04-16T18:27:04.219Z,4.10
2018-04-16T18:29:32.449Z,3.23
2018-04-16T18:31:59.995Z,3.17
2018-04-16T18:34:28.484Z,2.70
2018-04-16T18:36:55.981Z,2.80
2018-04-16T18:39:23.524Z,2.43
2018-04-16T18:41:51.017Z,2.33
2018-04-16T18:44:19.288Z,2.37
2018-04-16T18:46:47.565Z,2.53
2018-04-16T18:49:16.467Z,1.97
2018-04-16T18:51:44.872Z,1.70
2018-04-16T18:54:12.397Z,1.87
2018-04-16T18:56:39.936Z,1.87
2018-04-16T18:59:07.489Z,2.43
2018-04-16T19:01:36.412Z,2.07
2018-04-16T19:04:04.673Z,2.40
2018-04-16T19:06:33.136Z,3.53
2018-04-16T19:09:01.562Z,3.23
2018-04-16T19:11:29.860Z,3.47
2018-04-16T19:13:57.960Z,3.17
2018-04-16T19:16:31.208Z,3.73
2018-04-16T19:21:48.625Z,2.53
2018-04-16T19:24:22.941Z,2.70
2018-04-16T19:26:57.521Z,2.97
2018-04-16T19:29:25.016Z,2.53
2018-04-16T19:31:59.046Z,3.20
2018-04-16T19:34:33.393Z,3.97
2018-04-16T19:37:03.078Z,4.93
2018-04-16T19:39:32.204Z,5.67
2018-04-16T19:42:08.375Z,5.43
2018-04-16T19:44:36.296Z,5.30
2018-04-16T19:50:01.036Z,5.30
2018-04-16T19:52:29.313Z,4.40
2018-04-16T19:54:57.971Z,4.13
2018-04-16T19:57:32.077Z,2.90
2018-04-16T19:59:59.572Z,2.90
2018-04-16T20:02:33.405Z,2.93
2018-04-16T20:05:01.715Z,2.67
2018-04-16T20:07:29.469Z,2.87
2018-04-16T20:09:57.005Z,2.77
2018-04-16T20:12:24.978Z,2.33
2018-04-16T20:14:52.474Z,2.73
2018-04-16T20:17:19.993Z,2.93
2018-04-16T20:19:47.496Z,2.83
2018-04-16T20:22:15.004Z,3.00
2018-04-16T20:24:42.804Z,2.90
2018-04-16T20:27:10.318Z,2.73
2018-04-16T20:29:39.573Z,2.80
2018-04-16T20:32:07.108Z,2.40
2018-04-16T20:34:34.611Z,3.03
2018-04-16T20:37:02.127Z,3.07
2018-04-16T20:39:29.948Z,2.73
2018-04-16T20:41:57.468Z,3.13
2018-04-16T20:44:27.413Z,3.17
2018-04-16T20:46:54.946Z,3.50
2018-04-16T20:49:23.092Z,2.97
2018-04-16T20:51:50.614Z,3.00
2018-04-16T20:54:18.137Z,3.30
2018-04-16T20:56:46.053Z,3.00
2018-04-16T20:59:14.338Z,2.80
2018-04-16T21:01:42.695Z,3.43
2018-04-16T21:04:10.284Z,2.83
2018-04-16T21:06:39.054Z,3.17
2018-04-16T21:09:07.333Z,3.00
2018-04-16T21:11:35.601Z,2.60
2018-04-16T21:14:03.708Z,2.40
2018-04-16T21:16:32.080Z,2.90
2018-04-16T21:19:00.364Z,2.70
2018-04-16T21:21:27.876Z,3.20
2018-04-16T21:23:56.372Z,3.50
2018-04-16T21:26:25.058Z,4.60
2018-04-16T21:28:53.392Z,3.43
2018-04-16T21:31:20.893Z,2.80
2018-04-16T21:33:48.401Z,2.30
2018-04-16T21:36:15.912Z,3.30
2018-04-16T21:38:43.423Z,2.60
2018-04-16T21:41:12.062Z,2.83
2018-04-16T21:43:39.624Z,3.10
2018-04-16T21:46:07.197Z,2.70
2018-04-16T21:48:34.722Z,2.90
2018-04-16T21:51:02.218Z,2.60
2018-04-16T21:53:29.730Z,2.77
2018-04-16T21:55:57.219Z,3.20
2018-04-16T21:58:24.751Z,2.30
2018-04-16T22:00:52.249Z,2.60
2018-04-16T22:03:20.545Z,2.90
2018-04-16T22:05:48.876Z,2.60
2018-04-16T22:08:16.515Z,2.20
2018-04-16T22:10:45.001Z,2.67
2018-04-16T22:13:12.496Z,2.57
2018-04-16T22:15:40.017Z,2.60
2018-04-16T22:18:07.508Z,2.83
2018-04-16T22:20:35.390Z,3.20
2018-04-16T22:23:04.297Z,4.53
2018-04-16T22:25:32.055Z,6.50
2018-04-16T22:27:59.551Z,6.00
2018-04-16T22:30:27.068Z,6.27
2018-04-16T22:32:54.565Z,5.93
2018-04-16T22:35:22.080Z,5.00
2018-04-16T22:37:50.100Z,4.17
2018-04-16T22:40:17.628Z,2.90
2018-04-16T22:42:45.893Z,2.60
2018-04-16T22:45:13.414Z,2.73
2018-04-16T22:47:40.917Z,2.37
2018-04-16T22:50:08.423Z,3.03
2018-04-16T22:52:35.928Z,3.00
2018-04-16T22:55:04.011Z,3.37
2018-04-16T22:57:32.259Z,4.10
2018-04-16T22:59:59.763Z,3.53
2018-04-16T23:02:27.319Z,3.40
2018-04-16T23:04:56.226Z,3.20
2018-04-16T23:07:23.730Z,3.50
2018-04-16T23:09:51.224Z,3.17
2018-04-16T23:12:19.522Z,3.17
2018-04-16T23:14:47.007Z,2.73
2018-04-16T23:17:14.537Z,3.80
2018-04-16T23:19:42.032Z,3.80
2018-04-16T23:22:10.470Z,4.20
2018-04-16T23:24:37.970Z,3.83
2018-04-16T23:27:06.466Z,3.70
2018-04-16T23:29:33.929Z,4.30
2018-04-16T23:32:03.096Z,4.50
2018-04-16T23:34:32.247Z,4.43
2018-04-16T23:37:01.410Z,4.60
2018-04-16T23:39:30.571Z,3.53
2018-04-16T23:41:59.747Z,4.20
2018-04-16T23:44:28.900Z,4.20
2018-04-16T23:46:58.060Z,3.70
2018-04-16T23:49:27.206Z,4.13
2018-04-16T23:51:56.376Z,4.47
2018-04-16T23:54:25.538Z,4.60
2018-04-16T23:56:55.328Z,4.50
2018-04-16T23:59:24.473Z,4.07
